This is the latest recevied weather packets stored in our database for station/object LROP. If no packets are shown the sender has not sent any weather packets the latest 10 day(s).
| Time | Temp. | Humidity | Pressure | Rain* | Wind** | Luminosity | Snow |
|---|---|---|---|---|---|---|---|
| 1777105983 | 17.22° C | 42% | 1016 hPa | - | - | - | - |
| 1777105082 | 17.22° C | 37% | 1016 hPa | - | - | - | - |
| 1777104182 | 17.22° C | 37% | 1016 hPa | - | - | - | - |
| 1777103282 | 16.11° C | 39% | 1016 hPa | - | - | - | - |
| 1777102382 | 16.11° C | 39% | 1016 hPa | - | - | - | - |
| 1777101496 | 13.89° C | 51% | 1016 hPa | - | - | - | - |
| 1777100582 | 13.89° C | 51% | 1016 hPa | - | - | - | - |
| 1777099682 | 12.78° C | 47% | 1016 hPa | - | - | - | - |
| 1777098782 | 12.78° C | 47% | 1016 hPa | - | - | - | - |
| 1777097882 | 12.22° C | 51% | 1016 hPa | - | - | - | - |
| 1777096982 | 12.22° C | 51% | 1016 hPa | - | - | - | - |
| 1777096082 | 11.11° C | 54% | 1016 hPa | - | - | - | - |
| 1777095182 | 11.11° C | 54% | 1016 hPa | - | - | - | - |
| 1777094282 | 10° C | 54% | 1016 hPa | - | - | - | - |
| 1777093383 | 10° C | 54% | 1016 hPa | - | - | - | - |
| 1777092556 | 8.89° C | 62% | 1015 hPa | - | - | - | - |
| 1777091582 | 8.89° C | 62% | 1015 hPa | - | - | - | - |
| 1777090682 | 7.22° C | 71% | 1015 hPa | - | - | - | - |
| 1777089782 | 7.22° C | 71% | 1015 hPa | - | - | - | - |
| 1777088886 | 5° C | 81% | 1015 hPa | - | - | - | - |
| 1777087982 | 5° C | 81% | 1015 hPa | - | - | - | - |
| 1777087082 | 5° C | 81% | 1015 hPa | - | - | - | - |
| 1777086182 | 5° C | 81% | 1015 hPa | - | - | - | - |
| 1777085282 | 6.11° C | 76% | 1015 hPa | - | - | - | - |
| 1777084382 | 6.11° C | 76% | 1015 hPa | - | - | - | - |
* Rain since midnight (hover to see other rain measurements)
** Current wind speed in m/s (hover to see current wind gust speed)